Terminal Aerodrome Forecast
Issued by NWS

Home | Current Version | Previous Version | Text Only | Print | Product List | Glossary On
Versions: 1 2 3 4 5 6 7 8 9 10 11 12 13 14 15
000
FTUS44 KCRP 280538
TAFLRD
TAF
KLRD 280538Z 2806/2906 11012KT P6SM SCT250
     FM281000 14010KT P6SM BKN020 OVC200
     FM281500 16015G20KT P6SM SCT035 BKN150
     FM282300 14012G18KT P6SM VCTS SCT050CB OVC100
     FM290400 15010KT P6SM BKN025 OVC250=

USA.gov is the U.S. government's official web portal to all federal, state and local government web resources and services.